ESOK 092120Z AUTO 33012KT 9999 NCD M02/M04 Q0999